• Join FlightAware (Why Join?)
  • Login
  • US Flag 
06:26AM EDT


 

Airport Tracker/Info


-or-


 

Live Flight TrackerFlight Track Log ✈ KAP29 ✈ 19-Jul-2013 ✈ KSLK - KBOS

Flight Track Log - Related Links

Times and Time Zones

All times are in EDT time to prevent confusion due to time zone crossing. See the KAP29 flight status page for this flight to view local times or setup timezone preferences in your user account.

Time Position Orientation Groundspeed Altitude Reporting Facility
EDT Latitude Longitude Course Direction KTS MPH feet Rate Location/Type
04:26PM 44.1414 -73.5597 120° Southeast 164 189 11,400  Level Boston Center
04:27PM 44.1128 -73.4897 120° Southeast 194 223 11,300 -180 Descending Boston Center
04:28PM 44.0822 -73.4197 121° Southeast 206 237 11,100 -180 Descending Boston Center
04:29PM 44.0556 -73.3442 116° Southeast 206 237 11,000 -60 Descending Boston Center
04:30PM 44.0250 -73.2803 124° Southeast 206 237 11,000  Level Boston Center
04:31PM 43.9794 -73.2047 130° Southeast 193 222 11,000  Level Boston Center
04:32PM 43.9467 -73.1464 128° Southeast 193 222 11,000  Level Boston Center
04:33PM 43.9136 -73.0856 127° Southeast 193 222 11,000 -60 Level Boston Center
04:34PM 43.8806 -73.0219 126° Southeast 193 222 10,900  Descending Boston Center
04:35PM 43.8475 -72.9583 126° Southeast 204 235 11,000  Climbing Boston Center
04:36PM 43.8167 -72.8919 123° Southeast 199 229 11,000  Level Boston Center
04:37PM 43.7897 -72.8283 120° Southeast 199 229 11,000  Level Boston Center
04:38PM 43.7608 -72.7678 123° Southeast 199 229 11,000 -60 Level Boston Center
04:39PM 43.7297 -72.7044 124° Southeast 199 229 10,900 -60 Descending Boston Center
04:40PM 43.7006 -72.6383 121° Southeast 199 229 10,900  Level Boston Center
04:41PM 43.6694 -72.5722 123° Southeast 199 229 11,000 60 Climbing Boston Center
04:42PM 43.6383 -72.5061 123° Southeast 199 229 11,100  Climbing Boston Center
04:43PM 43.6111 -72.4400 120° Southeast 199 229 11,100  Level Boston Center
04:44PM 43.5819 -72.3742 121° Southeast 199 229 11,100 -60 Level Boston Center
04:45PM 43.5528 -72.3025 119° Southeast 205 236 11,000 -180 Descending Boston Center
04:46PM 43.5236 -72.2311 119° Southeast 212 244 10,800 -300 Descending Boston Center
04:47PM 43.4900 -72.1625 124° Southeast 212 244 10,500 -300 Descending Boston Center
04:48PM 43.4586 -72.0911 121° Southeast 212 244 10,200 -300 Descending Boston Center
04:49PM 43.4250 -72.0228 124° Southeast 212 244 9,900 -300 Descending Boston Center
04:50PM 43.3811 -71.9603 134° Southeast 217 250 9,600 -240 Descending Boston Center
04:52PM 43.3453 -71.9119 136° Southeast 204 235 9,400 -360 Descending Boston Center
04:53PM 43.2908 -71.8383 135° Southeast 198 228 8,900 -540 Descending Boston Center
04:54PM 43.2508 -71.7817 134° Southeast 198 228 8,400 -420 Descending Boston Center
04:55PM 43.2089 -71.7250 135° Southeast 198 228 8,100 -600 Descending Boston Center
04:56PM 43.1647 -71.6658 136° Southeast 210 242 7,300 -600 Descending Boston Center
04:57PM 43.1247 -71.6122 136° Southeast 210 242 7,000 -120 Descending Boston Center
04:57PM 43.1000 -71.5667 127° Southeast 192 221 7,100  Climbing KA90
04:58PM 43.0667 -71.5167 132° Southeast 188 216 7,000 -60 Descending KA90
04:59PM 43.0167 -71.4833 154° Southeast 182 209 7,000 -120 Level KA90
05:00PM 42.9833 -71.4167 124° Southeast 192 221 6,800 -360 Descending KA90
05:01PM 42.9500 -71.3667 132° Southeast 202 232 6,300 -600 Descending KA90
05:02PM 42.9167 -71.3167 132° Southeast 201 231 5,700 -600 Descending KA90
05:03PM 42.8667 -71.2500 136° Southeast 198 228 5,200 -360 Descending KA90
05:04PM 42.8333 -71.2000 132° Southeast 188 216 5,000 -120 Descending KA90
05:05PM 42.8000 -71.1667 144° Southeast 175 201 5,000 -240 Level KA90
05:06PM 42.7667 -71.1167 132° Southeast 179 206 4,600 -420 Descending KA90
05:07PM 42.7167 -71.0667 144° Southeast 183 211 4,200 -360 Descending KA90
05:08PM 42.7000 -71.0167 114° Southeast 180 207 4,000 -120 Descending KA90
05:09PM 42.6667 -70.9667 132° Southeast 170 196 4,000  Level KA90
05:10PM 42.6333 -70.9167 132° Southeast 163 188 4,000  Level KA90
05:11PM 42.6000 -70.9000 160° South 139 160 4,000 -60 Level KA90
05:12PM 42.5667 -70.9000 180° South 124 143 3,900 -360 Descending KA90
05:13PM 42.5333 -70.9167 200° South 135 155 3,400 -540 Descending KA90
05:14PM 42.5000 -70.9333 200° South 135 155 2,900 -600 Descending KA90
05:15PM 42.4667 -70.9667 216° Southwest 142 163 2,300 -660 Descending KA90
05:16PM 42.4333 -70.9667 180° South 144 166 1,700 -900 Descending KA90
05:17PM 42.4000 -70.9833 200° South 121 139 700 -1,020 Descending KA90
05:19PM 42.3630 -71.0064 200° South  Level Estimated
05:26PM 42.3630 -71.0064 200° South  Level Estimated